Augsburg, Germany

1:02 PM CEST on August 27, 2014 (GMT +0200)
Stadtbergen | Change Station
CLOSE
Current Station
Personal Weather Station
Location: Stadtbergen, BAYERN
Elevation: 1601 ft
Nearby Weather Stations

Elev 1601 ft 48.38 °N, 10.84 °E | Updated 3 seconds ago

Scattered Clouds
Scattered Clouds
62.2 °F
Feels Like 62.2 °F
N
0.0
Wind Variable Wind from NNE
Gusts 0.0 mph

Today
High -- | Low -- °F
--% Chance of Precip.
Yesterday
High -- | Low -- °F
Precip. -- in
6:26 AM 8:08 PM
Waxing Crescent, 3% visible
Pressure 30.01 in
Visibility 6.2 miles
Clouds Scattered Clouds 2000 ft
Dew Point 54 °F
Humidity 75%
Rainfall 0.18 in
Snow Depth Not available.
UV 5.0 out of 12
Pollen Not available.
Air Quality Not available.
Flu Activity Not available.
METAR EDMA 271050Z 36007KT 330V040 9999 SCT020 16/11 Q1016 RMK ATIS BRA

More Conditions Fewer Conditions

Pressure 30.01 in
Visibility 6.2 miles
Clouds Scattered Clouds 2000 ft
Dew Point 54 °F
Humidity 75%
Rainfall 0.18 in
Snow Depth Not available.
UV 5.0 out of 12
Pollen Not available.
Air Quality Not available.
Flu Activity Not available.
METAR EDMA 271050Z 36007KT 330V040 9999 SCT020 16/11 Q1016 RMK ATIS BRA

More Conditions Fewer Conditions

10-Day Weather Forecast

Almanac

Astronomy

Aug. 27, 2014 Rise Set
Actual Time 6:26 AM CEST 8:08 PM CEST
Civil Twilight 5:53 AM CEST 8:41 PM CEST
Nautical Twilight 5:12 AM CEST 9:21 PM CEST
Astronomical Twilight 4:28 AM CEST 10:05 PM CEST
Moon 8:18 AM CEST 8:38 PM CEST
Length of Visible Light 14h 47m
Length of Day
13h 41m
Tomorrow will be 3m 21s shorter.
Waxing Crescent, 3% of the Moon is Illuminated
Today
Waxing Crescent
Sep 2
First Quarter
Sep 8
Full
Sep 15
Last Quarter
Sep 24
New

Yesterday's Extremes

Country Highs Country Lows

Community

WunderPhotos

Upload Photos

1,747,667 photos uploaded!

Nearby

Snow Depth

Not available.

Earthquake Activity

City Distance Mag. Time & Date
No recent earthquake activity has been reported nearby.
Minimum magnitude displayed is 2.5.

Coastal Water Temperatures

Place Temperature
No Stations Reporting

Nearby Weather Stations